createdAt,value
2018-05-25T00:00:17.265Z,22.3
2018-05-25T00:01:22.325Z,22.3
2018-05-25T00:02:27.483Z,22.3
2018-05-25T00:03:33.522Z,22.2
2018-05-25T00:04:38.686Z,22.2
2018-05-25T00:05:43.557Z,22.2
2018-05-25T00:06:48.529Z,22.3
2018-05-25T00:07:53.406Z,22.3
2018-05-25T00:08:58.852Z,22.2
2018-05-25T00:10:04.271Z,22.2
2018-05-25T00:11:09.158Z,22.3
2018-05-25T00:12:14.347Z,22.3
2018-05-25T00:13:20.138Z,22.2
2018-05-25T00:14:25.348Z,22.2
2018-05-25T00:15:31.145Z,22.2
2018-05-25T00:16:36.591Z,22.3
2018-05-25T00:17:41.467Z,22.3
2018-05-25T00:18:46.332Z,22.2
2018-05-25T00:19:51.803Z,22.2
2018-05-25T00:20:56.968Z,22.2
2018-05-25T00:22:02.183Z,22.2
2018-05-25T00:23:06.505Z,22.2
2018-05-25T00:24:11.391Z,22.2
2018-05-25T00:25:17.195Z,22.2
2018-05-25T00:26:22.639Z,22.2
2018-05-25T00:27:28.102Z,22.2
2018-05-25T00:28:33.564Z,22.2
2018-05-25T00:29:39.003Z,22.2
2018-05-25T00:30:44.329Z,22.2
2018-05-25T00:31:49.774Z,22.2
2018-05-25T00:32:55.231Z,22.2
2018-05-25T00:34:00.441Z,22.2
2018-05-25T00:35:05.041Z,22.2
2018-05-25T00:36:10.208Z,22.2
2018-05-25T00:37:16.016Z,22.2
2018-05-25T00:38:21.461Z,22.2
2018-05-25T00:39:26.995Z,22.2
2018-05-25T00:40:32.157Z,22.2
2018-05-25T00:41:37.045Z,22.2
2018-05-25T00:42:42.743Z,22.2
2018-05-25T00:43:47.895Z,22.2
2018-05-25T00:44:52.772Z,22.2
2018-05-25T00:45:58.011Z,22.2
2018-05-25T00:47:02.330Z,22.2
2018-05-25T00:48:07.484Z,22.2
2018-05-25T00:49:13.052Z,22.2
2018-05-25T00:50:17.939Z,22.2
2018-05-25T00:51:23.202Z,22.2
2018-05-25T00:52:43.139Z,22.2
2018-05-25T00:53:48.301Z,22.2
2018-05-25T00:54:53.998Z,22.2
2018-05-25T00:55:58.584Z,22.2
2018-05-25T00:57:04.052Z,22.2
2018-05-25T00:58:09.234Z,22.2
2018-05-25T00:59:14.392Z,22.2
2018-05-25T01:00:19.833Z,22.2
2018-05-25T01:01:25.421Z,22.2
2018-05-25T01:02:30.312Z,22.2
2018-05-25T01:03:36.261Z,22.2
2018-05-25T01:04:41.700Z,22.2
2018-05-25T01:05:47.148Z,22.2
2018-05-25T01:06:52.849Z,22.2
2018-05-25T01:07:58.291Z,22.2
2018-05-25T01:09:03.743Z,22.2
2018-05-25T01:10:09.230Z,22.2
2018-05-25T01:11:14.391Z,22.2
2018-05-25T01:12:19.559Z,22.2
2018-05-25T01:13:39.892Z,22.2
2018-05-25T01:14:44.783Z,22.2
2018-05-25T01:15:50.381Z,22.2
2018-05-25T01:16:55.539Z,22.2
2018-05-25T01:18:00.979Z,22.2
2018-05-25T01:19:05.828Z,22.2
2018-05-25T01:20:10.730Z,22.2
2018-05-25T01:21:15.885Z,22.2
2018-05-25T01:22:21.682Z,22.2
2018-05-25T01:23:26.837Z,22.2
2018-05-25T01:24:32.264Z,22.2
2018-05-25T01:25:37.453Z,22.2
2018-05-25T01:26:42.620Z,22.2
2018-05-25T01:27:47.566Z,22.2
2018-05-25T01:28:52.732Z,22.2
2018-05-25T01:29:57.918Z,22.2
2018-05-25T01:31:03.331Z,22.2
2018-05-25T01:32:08.505Z,22.2
2018-05-25T01:33:13.664Z,22.2
2018-05-25T01:34:19.070Z,22.2
2018-05-25T01:35:23.956Z,22.2
2018-05-25T01:36:29.623Z,22.2
2018-05-25T01:37:34.790Z,22.2
2018-05-25T01:38:39.972Z,22.2
2018-05-25T01:39:45.662Z,22.2
2018-05-25T01:40:50.536Z,22.2
2018-05-25T01:41:55.982Z,22.2
2018-05-25T01:43:01.498Z,22.2
2018-05-25T01:44:06.655Z,22.2
2018-05-25T01:45:12.102Z,22.2
2018-05-25T01:46:17.516Z,22.2
2018-05-25T01:47:22.682Z,22.2
2018-05-25T01:48:28.295Z,22.2
2018-05-25T01:49:33.455Z,22.2
2018-05-25T01:50:38.898Z,22.2
2018-05-25T01:51:44.641Z,22.2
2018-05-25T01:52:49.796Z,22.2
2018-05-25T01:53:54.682Z,22.2
2018-05-25T01:55:00.289Z,22.2
2018-05-25T01:56:05.164Z,22.2
2018-05-25T01:57:10.368Z,22.2
2018-05-25T01:58:15.925Z,22.2
2018-05-25T01:59:21.107Z,22.2
2018-05-25T02:00:26.807Z,22.2
2018-05-25T02:01:32.260Z,22.2
2018-05-25T02:02:37.439Z,22.2
2018-05-25T02:03:43.378Z,22.2
2018-05-25T02:04:48.257Z,22.2
2018-05-25T02:05:53.707Z,22.2
2018-05-25T02:06:59.118Z,22.2
2018-05-25T02:08:04.596Z,22.2
2018-05-25T02:09:09.767Z,22.2
2018-05-25T02:10:15.175Z,22.2
2018-05-25T02:11:20.044Z,22.2
2018-05-25T02:12:25.558Z,22.2
2018-05-25T02:13:31.007Z,22.2
2018-05-25T02:14:35.894Z,22.2
2018-05-25T02:15:41.146Z,22.2
2018-05-25T02:16:46.302Z,22.2
2018-05-25T02:17:51.983Z,22.2
2018-05-25T02:18:57.566Z,22.2
2018-05-25T02:20:02.772Z,22.2
2018-05-25T02:21:07.993Z,22.2
2018-05-25T02:22:13.835Z,22.2
2018-05-25T02:23:19.003Z,22.2
2018-05-25T02:25:44.791Z,22.2
2018-05-25T02:26:49.972Z,22.2
2018-05-25T02:27:55.868Z,22.2
2018-05-25T02:29:01.318Z,22.2
2018-05-25T02:30:05.620Z,22.2
2018-05-25T02:31:10.805Z,22.2
2018-05-25T02:32:15.977Z,22.2
2018-05-25T02:33:20.847Z,22.2
2018-05-25T02:34:26.592Z,22.2
2018-05-25T02:35:31.472Z,22.2
2018-05-25T02:36:36.761Z,22.2
2018-05-25T02:37:41.938Z,22.2
2018-05-25T02:38:47.092Z,22.2
2018-05-25T02:39:52.893Z,22.2
2018-05-25T02:40:58.039Z,22.2
2018-05-25T02:42:02.354Z,22.2
2018-05-25T02:43:07.500Z,22.2
2018-05-25T02:44:12.373Z,22.2
2018-05-25T02:45:17.553Z,22.2
2018-05-25T02:46:23.297Z,22.3
2018-05-25T02:47:28.453Z,22.3
2018-05-25T02:48:33.737Z,22.2
2018-05-25T02:49:38.330Z,22.3
2018-05-25T02:50:43.786Z,22.2
2018-05-25T02:51:49.194Z,22.3
2018-05-25T02:52:54.638Z,22.3
2018-05-25T02:53:59.793Z,22.3
2018-05-25T02:55:04.950Z,22.3
2018-05-25T02:56:10.103Z,22.3
2018-05-25T02:57:15.302Z,22.3
2018-05-25T02:58:21.003Z,22.3
2018-05-25T02:59:26.439Z,22.3
2018-05-25T03:00:31.310Z,22.3
2018-05-25T03:01:36.481Z,22.3
2018-05-25T03:02:41.943Z,22.3
2018-05-25T03:03:47.368Z,22.3
2018-05-25T03:04:52.524Z,22.3
2018-05-25T03:05:57.688Z,22.3
2018-05-25T03:07:02.908Z,22.3
2018-05-25T03:08:08.071Z,22.3
2018-05-25T03:09:12.678Z,22.3
2018-05-25T03:10:18.376Z,22.3
2018-05-25T03:11:23.548Z,22.3
2018-05-25T03:12:28.733Z,22.3
2018-05-25T03:13:34.186Z,22.3
2018-05-25T03:14:39.628Z,22.3
2018-05-25T03:15:45.191Z,22.3
2018-05-25T03:16:50.682Z,22.3
2018-05-25T03:17:55.890Z,22.3
2018-05-25T03:19:01.504Z,22.3
2018-05-25T03:20:06.109Z,22.3
2018-05-25T03:21:10.750Z,22.3
2018-05-25T03:22:16.452Z,22.3
2018-05-25T03:23:21.608Z,22.2
2018-05-25T03:24:26.556Z,22.2
2018-05-25T03:25:31.993Z,22.2
2018-05-25T03:26:37.153Z,22.2
2018-05-25T03:27:42.555Z,22.3
2018-05-25T03:28:47.432Z,22.3
2018-05-25T03:29:52.594Z,22.3
2018-05-25T03:30:57.829Z,22.3
2018-05-25T03:32:03.006Z,22.3
2018-05-25T03:33:08.456Z,22.2
2018-05-25T03:34:14.014Z,22.2
2018-05-25T03:35:19.463Z,22.2
2018-05-25T03:37:44.717Z,22.2
2018-05-25T03:38:49.890Z,22.2
2018-05-25T03:39:55.585Z,22.2
2018-05-25T03:41:00.475Z,22.2
2018-05-25T03:42:05.063Z,22.2
2018-05-25T03:43:09.459Z,22.2
2018-05-25T03:44:14.626Z,22.2
2018-05-25T03:45:19.490Z,22.2
2018-05-25T03:46:39.638Z,22.2
2018-05-25T03:47:45.081Z,22.2
2018-05-25T03:48:50.213Z,22.2
2018-05-25T03:49:55.645Z,22.2
2018-05-25T03:51:01.108Z,22.2
2018-05-25T03:52:05.557Z,22.1
2018-05-25T03:53:10.718Z,22.2
2018-05-25T03:54:16.157Z,22.2
2018-05-25T03:55:20.989Z,22.2
2018-05-25T03:56:26.158Z,22.2
2018-05-25T03:57:31.168Z,22.2
2018-05-25T03:58:36.339Z,22.2
2018-05-25T03:59:41.769Z,22.1
2018-05-25T04:00:46.900Z,22.1
2018-05-25T04:01:52.064Z,22.1
2018-05-25T04:02:57.500Z,22.1
2018-05-25T04:04:02.923Z,22.2
2018-05-25T04:05:07.799Z,22.2
2018-05-25T04:06:13.288Z,22.2
2018-05-25T04:07:18.992Z,22.2
2018-05-25T04:08:24.445Z,22.2
2018-05-25T04:09:29.860Z,22.2
2018-05-25T04:10:35.017Z,22.1
2018-05-25T04:11:40.484Z,22.1
2018-05-25T04:12:45.999Z,22.1
2018-05-25T04:13:51.443Z,22.1
2018-05-25T04:14:56.600Z,22.1
2018-05-25T04:16:02.295Z,22.1
2018-05-25T04:17:06.939Z,22.1
2018-05-25T04:18:12.104Z,22.1
2018-05-25T04:19:17.233Z,22.1
2018-05-25T04:20:22.686Z,22.1
2018-05-25T04:21:28.406Z,22.1
2018-05-25T04:22:33.576Z,22.1
2018-05-25T04:23:38.752Z,22.1
2018-05-25T04:24:44.167Z,22.1
2018-05-25T04:25:49.320Z,22.1
2018-05-25T04:26:54.491Z,22.1
2018-05-25T04:28:00.190Z,22.1
2018-05-25T04:29:04.806Z,22.1
2018-05-25T04:30:09.990Z,22.1
2018-05-25T04:31:14.824Z,22.1
2018-05-25T04:32:20.259Z,22.1
2018-05-25T04:33:25.986Z,22.1
2018-05-25T04:34:30.574Z,22.1
2018-05-25T04:35:35.454Z,22.1
2018-05-25T04:36:40.677Z,22.1
2018-05-25T04:37:46.126Z,22.1
2018-05-25T04:38:51.302Z,22.1
2018-05-25T04:39:56.723Z,22.1
2018-05-25T04:41:01.615Z,22.1
2018-05-25T04:42:06.496Z,22.1
2018-05-25T04:43:12.370Z,22.1
2018-05-25T04:44:17.356Z,22.1
2018-05-25T04:45:22.804Z,22.1
2018-05-25T04:46:43.134Z,22.1
2018-05-25T04:47:48.287Z,22.1
2018-05-25T04:48:53.408Z,22
2018-05-25T04:49:58.607Z,22
2018-05-25T04:51:02.903Z,22.1
2018-05-25T04:52:08.749Z,22.1
2018-05-25T04:53:13.349Z,22.1
2018-05-25T04:54:18.811Z,22.1
2018-05-25T04:55:24.263Z,22
2018-05-25T04:56:29.702Z,22
2018-05-25T04:57:34.826Z,22
2018-05-25T04:58:40.284Z,22
2018-05-25T04:59:45.471Z,22
2018-05-25T05:00:50.612Z,22
2018-05-25T05:01:56.050Z,22
2018-05-25T05:03:01.498Z,22.1
2018-05-25T05:04:07.251Z,22.1
2018-05-25T05:05:12.461Z,22.1
2018-05-25T05:06:17.912Z,22.1
2018-05-25T05:07:23.698Z,22.1
2018-05-25T05:08:28.864Z,22.1
2018-05-25T05:09:34.563Z,22.1
2018-05-25T05:10:40.000Z,22.1
2018-05-25T05:11:45.179Z,22.1
2018-05-25T05:12:50.365Z,22.1
2018-05-25T05:13:55.526Z,22
2018-05-25T05:15:00.690Z,22.1
2018-05-25T05:16:05.561Z,22.1
2018-05-25T05:17:10.727Z,22
2018-05-25T05:18:15.884Z,22
2018-05-25T05:19:21.507Z,22.1
2018-05-25T05:20:26.666Z,22.1
2018-05-25T05:21:32.295Z,22.1
2018-05-25T05:22:37.180Z,22.1
2018-05-25T05:23:42.628Z,22.1
2018-05-25T05:24:48.314Z,22.1
2018-05-25T05:25:53.763Z,22
2018-05-25T05:26:59.203Z,22.1
2018-05-25T05:28:04.438Z,22.1
2018-05-25T05:29:09.620Z,22.1
2018-05-25T05:30:14.798Z,22.1
2018-05-25T05:31:19.674Z,22
2018-05-25T05:32:25.144Z,22.1
2018-05-25T05:33:31.230Z,22
2018-05-25T05:34:36.496Z,22.1
2018-05-25T05:35:41.372Z,22
2018-05-25T05:36:46.988Z,22.1
2018-05-25T05:37:52.436Z,22.1
2018-05-25T05:38:57.593Z,22.1
2018-05-25T05:40:02.171Z,22.1
2018-05-25T05:41:07.043Z,22.1
2018-05-25T05:42:11.922Z,22.1
2018-05-25T05:43:17.347Z,22.1
2018-05-25T05:44:22.222Z,22.1
2018-05-25T05:45:27.796Z,22.1
2018-05-25T05:46:32.455Z,22.1
2018-05-25T05:47:37.350Z,22.1
2018-05-25T05:48:43.143Z,22
2018-05-25T05:49:48.292Z,22
2018-05-25T05:50:53.502Z,22
2018-05-25T05:51:59.331Z,22
2018-05-25T05:53:04.221Z,22.1
2018-05-25T05:54:09.102Z,22.1
2018-05-25T05:55:14.606Z,22
2018-05-25T05:56:20.055Z,22
2018-05-25T05:57:25.823Z,22.1
2018-05-25T05:58:30.701Z,22.1
2018-05-25T05:59:35.860Z,22.1
2018-05-25T06:00:41.100Z,22.1
2018-05-25T06:01:46.559Z,22.1
2018-05-25T06:02:51.436Z,22.1
2018-05-25T06:03:57.232Z,22.1
2018-05-25T06:05:02.035Z,22.1
2018-05-25T06:06:07.197Z,22.1
2018-05-25T06:07:12.668Z,22.1
2018-05-25T06:08:17.827Z,22.1
2018-05-25T06:09:22.994Z,22.1
2018-05-25T06:10:27.758Z,22.1
2018-05-25T06:11:32.933Z,22.1
2018-05-25T06:12:38.164Z,22.1
2018-05-25T06:13:43.629Z,22.1
2018-05-25T06:14:48.512Z,22.1
2018-05-25T06:15:53.932Z,22.1
2018-05-25T06:16:59.103Z,22.1
2018-05-25T06:18:04.544Z,22.1
2018-05-25T06:19:10.234Z,22.1
2018-05-25T06:20:15.712Z,22.1
2018-05-25T06:21:21.183Z,22.1
2018-05-25T06:22:26.769Z,22.1
2018-05-25T06:23:32.492Z,22.1
2018-05-25T06:24:38.042Z,22.2
2018-05-25T06:25:43.194Z,22.2
2018-05-25T06:26:48.075Z,22.1
2018-05-25T06:27:53.528Z,22.1
2018-05-25T06:28:58.968Z,22.2
2018-05-25T06:30:03.862Z,22.2
2018-05-25T06:31:09.002Z,22.2
2018-05-25T06:32:13.879Z,22.2
2018-05-25T06:33:19.047Z,22.2
2018-05-25T06:34:24.748Z,22.2
2018-05-25T06:35:29.054Z,22.2
2018-05-25T06:36:34.426Z,22.2
2018-05-25T06:37:39.576Z,22.2
2018-05-25T06:38:44.469Z,22.2
2018-05-25T06:39:49.592Z,22.2
2018-05-25T06:40:54.744Z,22.2
2018-05-25T06:41:59.639Z,22.2
2018-05-25T06:43:04.913Z,22.2
2018-05-25T06:44:09.507Z,22.2
2018-05-25T06:45:14.383Z,22.2
2018-05-25T06:46:19.783Z,22.2
2018-05-25T06:47:25.257Z,22.2
2018-05-25T06:48:30.668Z,22.2
2018-05-25T06:49:35.268Z,22.2
2018-05-25T06:50:40.748Z,22.2
2018-05-25T06:51:46.265Z,22.2
2018-05-25T06:52:51.432Z,22.2
2018-05-25T06:53:56.889Z,22.2
2018-05-25T06:55:02.128Z,22.3
2018-05-25T06:56:06.183Z,22.3
2018-05-25T06:57:11.622Z,22.2
2018-05-25T06:58:17.418Z,22.2
2018-05-25T06:59:22.611Z,22.2
2018-05-25T07:00:27.742Z,22.2
2018-05-25T07:01:32.635Z,22.2
2018-05-25T07:02:37.779Z,22.2
2018-05-25T07:03:43.017Z,22.2
2018-05-25T07:04:48.462Z,22.3
2018-05-25T07:05:53.906Z,22.3
2018-05-25T07:06:59.332Z,22.3
2018-05-25T07:08:04.507Z,22.3
2018-05-25T07:09:09.690Z,22.3
2018-05-25T07:10:15.376Z,22.3
2018-05-25T07:11:20.818Z,22.3
2018-05-25T07:12:26.175Z,22.3
2018-05-25T07:13:31.606Z,22.3
2018-05-25T07:14:36.471Z,22.3
2018-05-25T07:15:42.263Z,22.3
2018-05-25T07:16:47.425Z,22.3
2018-05-25T07:17:52.570Z,22.3
2018-05-25T07:18:58.042Z,22.3
2018-05-25T07:20:02.928Z,22.3
2018-05-25T07:21:08.118Z,22.3
2018-05-25T07:22:13.818Z,22.3
2018-05-25T07:23:18.976Z,22.3
2018-05-25T07:24:24.143Z,22.4
2018-05-25T07:25:29.267Z,22.4
2018-05-25T07:26:34.429Z,22.4
2018-05-25T07:27:39.712Z,22.4
2018-05-25T07:28:45.165Z,22.4
2018-05-25T07:29:50.332Z,22.4
2018-05-25T07:30:55.794Z,22.4
2018-05-25T07:32:00.690Z,22.4
2018-05-25T07:33:05.607Z,22.4
2018-05-25T07:34:11.266Z,22.4
2018-05-25T07:35:16.148Z,22.4
2018-05-25T07:36:21.310Z,22.4
2018-05-25T07:37:26.978Z,22.4
2018-05-25T07:38:32.409Z,22.5
2018-05-25T07:39:37.648Z,22.5
2018-05-25T07:40:43.081Z,22.5
2018-05-25T07:41:48.258Z,22.5
2018-05-25T07:42:53.669Z,22.5
2018-05-25T07:43:59.104Z,22.5
2018-05-25T07:45:04.247Z,22.5
2018-05-25T07:46:09.386Z,22.5
2018-05-25T07:47:14.244Z,22.5
2018-05-25T07:48:19.689Z,22.5
2018-05-25T07:49:25.249Z,22.5
2018-05-25T07:50:29.567Z,22.5
2018-05-25T07:51:35.304Z,22.5
2018-05-25T07:52:40.184Z,22.5
2018-05-25T07:53:45.082Z,22.5
2018-05-25T07:54:50.566Z,22.5
2018-05-25T07:55:55.736Z,22.5
2018-05-25T07:57:00.906Z,22.5
2018-05-25T07:58:05.855Z,22.5
2018-05-25T07:59:11.030Z,22.5
2018-05-25T08:00:16.689Z,22.5
2018-05-25T08:01:22.239Z,22.5
2018-05-25T08:02:27.672Z,22.5
2018-05-25T08:03:33.452Z,22.6
2018-05-25T08:04:38.886Z,22.5
2018-05-25T08:05:44.058Z,22.6
2018-05-25T08:06:49.995Z,22.6
2018-05-25T08:07:55.178Z,22.5
2018-05-25T08:09:00.616Z,22.6
2018-05-25T08:10:05.753Z,22.6
2018-05-25T08:11:10.560Z,22.6
2018-05-25T08:12:16.003Z,22.6
2018-05-25T08:13:21.559Z,22.6
2018-05-25T08:14:27.328Z,22.6
2018-05-25T08:15:32.887Z,22.6
2018-05-25T08:16:38.366Z,22.6
2018-05-25T08:17:43.798Z,22.6
2018-05-25T08:18:49.479Z,22.6
2018-05-25T08:19:54.914Z,22.6
2018-05-25T08:21:00.386Z,22.6
2018-05-25T08:22:05.274Z,22.6
2018-05-25T08:23:10.774Z,22.6
2018-05-25T08:24:16.218Z,22.6
2018-05-25T08:25:22.398Z,22.6
2018-05-25T08:26:27.560Z,22.7
2018-05-25T08:27:33.323Z,22.6
2018-05-25T08:28:38.775Z,22.6
2018-05-25T08:29:43.926Z,22.7
2018-05-25T08:30:49.120Z,22.7
2018-05-25T08:31:53.972Z,22.7
2018-05-25T08:32:58.844Z,22.7
2018-05-25T08:34:03.969Z,22.7
2018-05-25T08:35:08.826Z,22.7
2018-05-25T08:36:14.275Z,22.7
2018-05-25T08:37:19.814Z,22.7
2018-05-25T08:38:24.964Z,22.7
2018-05-25T08:39:30.959Z,22.7
2018-05-25T08:40:36.119Z,22.7
2018-05-25T08:41:41.300Z,22.7
2018-05-25T08:42:46.992Z,22.7
2018-05-25T08:43:51.908Z,22.7
2018-05-25T08:44:57.323Z,22.7
2018-05-25T08:46:02.444Z,22.7
2018-05-25T08:47:07.838Z,22.7
2018-05-25T08:48:12.992Z,22.7
2018-05-25T08:49:18.405Z,22.7
2018-05-25T08:50:23.861Z,22.7
2018-05-25T08:51:29.178Z,22.7
2018-05-25T08:52:34.051Z,22.7
2018-05-25T08:53:39.532Z,22.7
2018-05-25T08:54:44.829Z,22.7
2018-05-25T08:55:50.279Z,22.7
2018-05-25T08:56:55.824Z,22.7
2018-05-25T08:58:01.226Z,22.7
2018-05-25T08:59:05.533Z,22.7
2018-05-25T09:00:10.413Z,22.7
2018-05-25T09:01:15.571Z,22.7
2018-05-25T09:02:20.238Z,22.7
2018-05-25T09:03:25.842Z,22.7
2018-05-25T09:04:31.392Z,22.7
2018-05-25T09:05:36.538Z,22.7
2018-05-25T09:06:42.177Z,22.7
2018-05-25T09:07:47.180Z,22.7
2018-05-25T09:08:52.345Z,22.7
2018-05-25T09:09:57.861Z,22.7
2018-05-25T09:11:03.305Z,22.7
2018-05-25T09:12:08.189Z,22.7
2018-05-25T09:13:14.135Z,22.7
2018-05-25T09:14:19.022Z,22.7
2018-05-25T09:15:23.894Z,22.7
2018-05-25T09:16:29.817Z,22.7
2018-05-25T09:17:35.247Z,22.7
2018-05-25T09:18:40.085Z,22.7
2018-05-25T09:19:45.250Z,22.7
2018-05-25T09:20:50.563Z,22.7
2018-05-25T09:21:56.363Z,22.7
2018-05-25T09:23:01.857Z,22.7
2018-05-25T09:24:07.045Z,22.7
2018-05-25T09:25:12.298Z,22.7
2018-05-25T09:26:17.729Z,22.7
2018-05-25T09:27:22.321Z,22.7
2018-05-25T09:28:28.352Z,22.7
2018-05-25T09:29:33.783Z,22.7
2018-05-25T09:30:39.415Z,22.7
2018-05-25T09:31:44.487Z,22.6
2018-05-25T09:32:49.950Z,22.7
2018-05-25T09:33:54.892Z,22.7
2018-05-25T09:34:59.918Z,22.7
2018-05-25T09:36:04.239Z,22.6
2018-05-25T09:37:08.902Z,22.7
2018-05-25T09:38:13.778Z,22.7
2018-05-25T09:39:19.215Z,22.7
2018-05-25T09:40:39.446Z,22.6
2018-05-25T09:41:44.880Z,22.6
2018-05-25T09:42:50.196Z,22.6
2018-05-25T09:43:55.376Z,22.6
2018-05-25T09:45:00.260Z,22.6
2018-05-25T09:46:05.380Z,22.6
2018-05-25T09:47:10.259Z,22.7
2018-05-25T09:48:15.705Z,22.6
2018-05-25T09:49:20.259Z,22.7
2018-05-25T09:50:25.619Z,22.7
2018-05-25T09:51:30.211Z,22.7
2018-05-25T09:52:35.301Z,22.7
2018-05-25T09:53:40.446Z,22.6
2018-05-25T09:54:45.866Z,22.6
2018-05-25T09:55:50.743Z,22.6
2018-05-25T09:56:56.189Z,22.6
2018-05-25T09:58:02.234Z,22.7
2018-05-25T09:59:07.121Z,22.6
2018-05-25T10:00:12.202Z,22.6
2018-05-25T10:01:17.242Z,22.6
2018-05-25T10:02:22.875Z,22.6
2018-05-25T10:03:28.075Z,22.6
2018-05-25T10:04:33.369Z,22.6
2018-05-25T10:05:38.807Z,22.6
2018-05-25T10:06:43.710Z,22.6
2018-05-25T10:07:48.883Z,22.6
2018-05-25T10:08:54.335Z,22.7
2018-05-25T10:09:59.747Z,22.7
2018-05-25T10:11:04.627Z,22.6
2018-05-25T10:12:10.060Z,22.7
2018-05-25T10:13:15.292Z,22.6
2018-05-25T10:14:20.089Z,22.6
2018-05-25T10:16:44.882Z,22.6
2018-05-25T10:17:50.073Z,22.6
2018-05-25T10:18:55.195Z,22.6
2018-05-25T10:20:00.384Z,22.6
2018-05-25T10:21:05.295Z,22.6
2018-05-25T10:22:10.711Z,22.6
2018-05-25T10:23:15.876Z,22.6
2018-05-25T10:24:21.025Z,22.7
2018-05-25T10:25:26.805Z,22.6
2018-05-25T10:26:31.970Z,22.7
2018-05-25T10:27:36.810Z,22.7
2018-05-25T10:28:42.005Z,22.6
2018-05-25T10:29:47.248Z,22.6
2018-05-25T10:30:52.669Z,22.6
2018-05-25T10:31:58.123Z,22.7
2018-05-25T10:33:03.563Z,22.7
2018-05-25T10:34:09.060Z,22.7
2018-05-25T10:35:13.928Z,22.7
2018-05-25T10:36:19.099Z,22.7
2018-05-25T10:37:25.232Z,22.7
2018-05-25T10:38:30.667Z,22.7
2018-05-25T10:39:36.361Z,22.7
2018-05-25T10:40:41.802Z,22.7
2018-05-25T10:41:47.234Z,22.7
2018-05-25T10:42:52.377Z,22.7
2018-05-25T10:43:57.544Z,22.7
2018-05-25T10:45:02.987Z,22.7
2018-05-25T10:46:07.816Z,22.6
2018-05-25T10:47:12.980Z,22.6
2018-05-25T10:48:18.461Z,22.6
2018-05-25T10:49:23.961Z,22.7
2018-05-25T10:50:29.122Z,22.6
2018-05-25T10:51:34.530Z,22.6
2018-05-25T10:52:39.696Z,22.6
2018-05-25T10:53:44.851Z,22.6
2018-05-25T10:54:49.698Z,22.6
2018-05-25T10:55:55.156Z,22.6
2018-05-25T10:57:00.466Z,22.6
2018-05-25T10:58:05.741Z,22.6
2018-05-25T10:59:10.886Z,22.6
2018-05-25T11:00:16.042Z,22.6
2018-05-25T11:01:21.269Z,22.6
2018-05-25T11:02:26.769Z,22.7
2018-05-25T11:03:32.175Z,22.7
2018-05-25T11:04:36.967Z,22.7
2018-05-25T11:05:42.151Z,22.6
2018-05-25T11:06:47.556Z,22.6
2018-05-25T11:07:52.997Z,22.7
2018-05-25T11:08:58.175Z,22.7
2018-05-25T11:10:03.342Z,22.7
2018-05-25T11:11:08.863Z,22.7
2018-05-25T11:12:14.315Z,22.7
2018-05-25T11:13:19.285Z,22.7
2018-05-25T11:14:24.164Z,22.7
2018-05-25T11:15:29.517Z,22.6
2018-05-25T11:16:34.948Z,22.7
2018-05-25T11:17:40.107Z,22.6
2018-05-25T11:18:45.544Z,22.6
2018-05-25T11:19:50.991Z,22.6
2018-05-25T11:20:56.201Z,22.6
2018-05-25T11:22:02.162Z,22.7
2018-05-25T11:23:07.021Z,22.7
2018-05-25T11:24:12.460Z,22.7
2018-05-25T11:25:17.866Z,22.7
2018-05-25T11:26:23.314Z,22.7
2018-05-25T11:27:28.974Z,22.7
2018-05-25T11:28:33.829Z,22.7
2018-05-25T11:29:38.902Z,22.7
2018-05-25T11:30:44.020Z,22.7
2018-05-25T11:31:49.162Z,22.7
2018-05-25T11:32:54.314Z,22.7
2018-05-25T11:33:59.716Z,22.7
2018-05-25T11:35:04.876Z,22.7
2018-05-25T11:36:10.310Z,22.7
2018-05-25T11:37:15.447Z,22.6
2018-05-25T11:38:20.528Z,22.6
2018-05-25T11:39:26.511Z,22.7
2018-05-25T11:40:31.656Z,22.7
2018-05-25T11:41:36.830Z,22.7
2018-05-25T11:42:42.714Z,22.6
2018-05-25T11:43:48.160Z,22.7
2018-05-25T11:44:53.785Z,22.7
2018-05-25T11:45:59.637Z,22.7
2018-05-25T11:47:03.931Z,22.7
2018-05-25T11:48:08.812Z,22.7
2018-05-25T11:49:14.224Z,22.7
2018-05-25T11:50:19.653Z,22.7
2018-05-25T11:51:24.536Z,22.7
2018-05-25T11:52:30.292Z,22.7
2018-05-25T11:53:35.727Z,22.7
2018-05-25T11:54:40.997Z,22.7
2018-05-25T11:55:46.434Z,22.7
2018-05-25T11:56:51.311Z,22.7
2018-05-25T11:57:56.507Z,22.7
2018-05-25T11:59:01.383Z,22.7
2018-05-25T12:00:06.296Z,22.7
2018-05-25T12:01:11.674Z,22.7
2018-05-25T12:02:16.819Z,22.7
2018-05-25T12:03:21.976Z,22.7
2018-05-25T12:04:27.090Z,22.6
2018-05-25T12:05:32.275Z,22.7
2018-05-25T12:06:37.505Z,22.6
2018-05-25T12:07:42.856Z,22.6
2018-05-25T12:08:48.001Z,22.7
2018-05-25T12:09:53.399Z,22.6
2018-05-25T12:10:58.555Z,22.7
2018-05-25T12:12:03.437Z,22.6
2018-05-25T12:13:09.229Z,22.6
2018-05-25T12:14:14.105Z,22.7
2018-05-25T12:15:19.253Z,22.6
2018-05-25T12:16:24.671Z,22.6
2018-05-25T12:17:30.011Z,22.7
2018-05-25T12:18:35.134Z,22.6
2018-05-25T12:19:40.297Z,22.6
2018-05-25T12:20:45.740Z,22.6
2018-05-25T12:21:51.347Z,22.6
2018-05-25T12:22:56.511Z,22.6
2018-05-25T12:24:01.082Z,22.7
2018-05-25T12:25:05.737Z,22.7
2018-05-25T12:26:10.897Z,22.6
2018-05-25T12:27:16.533Z,22.6
2018-05-25T12:28:22.434Z,22.6
2018-05-25T12:29:27.873Z,22.6
2018-05-25T12:30:33.418Z,22.6
2018-05-25T12:31:38.576Z,22.6
2018-05-25T12:32:43.715Z,22.6
2018-05-25T12:33:49.141Z,22.6
2018-05-25T12:34:54.493Z,22.6
2018-05-25T12:35:59.647Z,22.6
2018-05-25T12:37:04.773Z,22.6
2018-05-25T12:38:09.939Z,22.6
2018-05-25T12:39:14.511Z,22.6
2018-05-25T12:40:19.654Z,22.6
2018-05-25T12:41:24.804Z,22.6
2018-05-25T12:42:30.437Z,22.6
2018-05-25T12:43:35.786Z,22.6
2018-05-25T12:44:40.971Z,22.6
2018-05-25T12:45:46.468Z,22.6
2018-05-25T12:46:51.622Z,22.7
2018-05-25T12:47:56.505Z,22.6
2018-05-25T12:49:01.377Z,22.7
2018-05-25T12:50:06.301Z,22.7
2018-05-25T12:51:11.664Z,22.6
2018-05-25T12:52:16.946Z,22.7
2018-05-25T12:53:21.829Z,22.6
2018-05-25T12:54:27.104Z,22.6
2018-05-25T12:55:32.559Z,22.6
2018-05-25T12:56:37.456Z,22.7
2018-05-25T12:57:43.257Z,22.7
2018-05-25T12:58:48.705Z,22.7
2018-05-25T12:59:54.162Z,22.6
2018-05-25T13:00:59.572Z,22.6
2018-05-25T13:02:04.170Z,22.6
2018-05-25T13:03:09.361Z,22.6
2018-05-25T13:04:15.065Z,22.6
2018-05-25T13:05:20.503Z,22.6
2018-05-25T13:06:26.130Z,22.6
2018-05-25T13:07:31.286Z,22.6
2018-05-25T13:08:36.448Z,22.6
2018-05-25T13:09:41.865Z,22.6
2018-05-25T13:10:46.939Z,22.6
2018-05-25T13:11:51.519Z,22.7
2018-05-25T13:12:57.203Z,22.7
2018-05-25T13:14:02.637Z,22.7
2018-05-25T13:15:07.207Z,22.7
2018-05-25T13:16:12.782Z,22.7
2018-05-25T13:17:17.392Z,22.7
2018-05-25T13:18:22.258Z,22.7
2018-05-25T13:19:28.799Z,22.7
2018-05-25T13:20:34.154Z,22.7
2018-05-25T13:21:39.335Z,22.7
2018-05-25T13:22:44.872Z,22.7
2018-05-25T13:23:49.736Z,22.7
2018-05-25T13:24:55.432Z,22.7
2018-05-25T13:26:00.302Z,22.7
2018-05-25T13:27:05.181Z,22.7
2018-05-25T13:28:10.449Z,22.7
2018-05-25T13:29:15.629Z,22.7
2018-05-25T13:30:20.498Z,22.7
2018-05-25T13:31:25.980Z,22.7
2018-05-25T13:32:31.142Z,22.7
2018-05-25T13:33:36.830Z,22.7
2018-05-25T13:34:41.981Z,22.7
2018-05-25T13:35:46.858Z,22.7
2018-05-25T13:36:52.264Z,22.7
2018-05-25T13:37:57.427Z,22.7
2018-05-25T13:39:02.315Z,22.7
2018-05-25T13:40:07.999Z,22.7
2018-05-25T13:41:13.165Z,22.8
2018-05-25T13:42:17.758Z,22.8
2018-05-25T13:43:23.289Z,22.7
2018-05-25T13:44:28.434Z,22.8
2018-05-25T13:45:33.942Z,22.7
2018-05-25T13:46:38.532Z,22.7
2018-05-25T13:47:43.975Z,22.7
2018-05-25T13:48:49.643Z,22.7
2018-05-25T13:49:55.082Z,22.7
2018-05-25T13:51:00.273Z,22.7
2018-05-25T13:52:05.692Z,22.7
2018-05-25T13:53:11.132Z,22.7
2018-05-25T13:54:16.586Z,22.7
2018-05-25T13:55:22.364Z,22.7
2018-05-25T13:56:27.697Z,22.7
2018-05-25T13:57:33.657Z,22.7
2018-05-25T13:58:39.097Z,22.7
2018-05-25T13:59:44.257Z,22.7
2018-05-25T14:00:49.483Z,22.7
2018-05-25T14:01:54.939Z,22.7
2018-05-25T14:02:59.836Z,22.7
2018-05-25T14:04:05.531Z,22.7
2018-05-25T14:05:10.416Z,22.7
2018-05-25T14:06:16.047Z,22.8
2018-05-25T14:07:21.477Z,22.8
2018-05-25T14:08:26.909Z,22.8
2018-05-25T14:09:31.744Z,22.8
2018-05-25T14:10:36.905Z,22.8
2018-05-25T14:11:42.356Z,22.9
2018-05-25T14:12:48.072Z,22.9
2018-05-25T14:13:53.507Z,22.9
2018-05-25T14:14:58.959Z,22.9
2018-05-25T14:16:04.075Z,22.9
2018-05-25T14:17:08.379Z,22.9
2018-05-25T14:18:13.563Z,22.9
2018-05-25T14:19:19.116Z,22.9
2018-05-25T14:20:24.299Z,22.9
2018-05-25T14:21:30.122Z,22.9
2018-05-25T14:22:35.277Z,22.9
2018-05-25T14:23:40.713Z,22.9
2018-05-25T14:24:45.825Z,22.9
2018-05-25T14:25:50.725Z,22.9
2018-05-25T14:26:56.158Z,22.9
2018-05-25T14:28:01.844Z,23
2018-05-25T14:29:06.908Z,22.9
2018-05-25T14:30:12.076Z,22.9
2018-05-25T14:31:17.337Z,22.9
2018-05-25T14:32:22.490Z,22.9
2018-05-25T14:33:28.155Z,23
2018-05-25T14:34:33.320Z,22.9
2018-05-25T14:35:38.497Z,22.9